createdAt,value
2022-11-04T00:00:01.251Z,1020.2
2022-11-04T00:01:03.220Z,1020.3
2022-11-04T00:02:03.347Z,1020.3
2022-11-04T00:03:00.933Z,1020.3
2022-11-04T00:04:01.221Z,1020.3
2022-11-04T00:05:00.934Z,1020.3
2022-11-04T00:06:01.786Z,1020.3
2022-11-04T00:07:00.948Z,1020.3
2022-11-04T00:08:00.931Z,1020.3
2022-11-04T00:09:00.954Z,1020.3
2022-11-04T00:10:00.942Z,1020.3
2022-11-04T00:11:01.297Z,1020.3
2022-11-04T00:12:00.914Z,1020.3
2022-11-04T00:13:01.213Z,1020.4
2022-11-04T00:14:01.127Z,1020.3
2022-11-04T00:15:00.939Z,1020.3
2022-11-04T00:16:01.060Z,1020.3
2022-11-04T00:17:01.549Z,1020.3
2022-11-04T00:18:00.935Z,1020.3
2022-11-04T00:19:01.669Z,1020.4
2022-11-04T00:20:00.919Z,1020.3
2022-11-04T00:21:01.217Z,1020.3
2022-11-04T00:22:01.237Z,1020.3
2022-11-04T00:23:00.967Z,1020.3
2022-11-04T00:24:01.410Z,1020.3
2022-11-04T00:25:01.031Z,1020.3
2022-11-04T00:26:01.224Z,1020.3
2022-11-04T00:27:00.931Z,1020.2
2022-11-04T00:28:03.369Z,1020.2
2022-11-04T00:29:00.936Z,1020.2
2022-11-04T00:30:02.172Z,1020.2
2022-11-04T00:31:02.893Z,1020.2
2022-11-04T00:32:01.230Z,1020.2
2022-11-04T00:33:00.924Z,1020.2
2022-11-04T00:34:00.960Z,1020.2
2022-11-04T00:35:00.962Z,1020.1
2022-11-04T00:36:00.923Z,1020.2
2022-11-04T00:37:00.920Z,1020.2
2022-11-04T00:38:01.234Z,1020.2
2022-11-04T00:39:01.094Z,1020.1
2022-11-04T00:40:00.988Z,1020.1
2022-11-04T00:41:00.941Z,1020.1
2022-11-04T00:42:01.257Z,1020.1
2022-11-04T00:43:00.921Z,1020.1
2022-11-04T00:44:03.296Z,1020.1
2022-11-04T00:45:00.966Z,1020.1
2022-11-04T00:46:01.109Z,1020.1
2022-11-04T00:47:00.953Z,1020.1
2022-11-04T00:48:01.335Z,1020.1
2022-11-04T00:49:01.233Z,1020.1
2022-11-04T00:50:01.439Z,1020.1
2022-11-04T00:51:01.297Z,1020.1
2022-11-04T00:52:01.269Z,1020.1
2022-11-04T00:53:02.272Z,1020.1
2022-11-04T00:54:00.940Z,1020.1
2022-11-04T00:55:01.249Z,1020.1
2022-11-04T00:56:01.288Z,1020.1
2022-11-04T00:57:01.258Z,1020.2
2022-11-04T00:58:01.276Z,1020.2
2022-11-04T00:59:00.946Z,1020.2
2022-11-04T01:00:00.915Z,1020.1
2022-11-04T01:01:07.307Z,1020.1
2022-11-04T01:02:01.422Z,1020.1
2022-11-04T01:03:00.917Z,1020.2
2022-11-04T01:04:01.414Z,1020.2
2022-11-04T01:05:01.175Z,1020.2
2022-11-04T01:06:01.363Z,1020.2
2022-11-04T01:07:01.772Z,1020.1
2022-11-04T01:08:00.938Z,1020.2
2022-11-04T01:09:03.660Z,1020.2
2022-11-04T01:10:00.935Z,1020.2
2022-11-04T01:11:01.190Z,1020.2
2022-11-04T01:12:01.537Z,1020.2
2022-11-04T01:13:01.141Z,1020.2
2022-11-04T01:14:01.608Z,1020.2
2022-11-04T01:15:01.254Z,1020.2
2022-11-04T01:16:03.447Z,1020.3
2022-11-04T01:17:01.530Z,1020.2
2022-11-04T01:18:00.940Z,1020.2
2022-11-04T01:19:01.479Z,1020.3
2022-11-04T01:20:01.229Z,1020.3
2022-11-04T01:21:02.034Z,1020.2
2022-11-04T01:22:01.225Z,1020.2
2022-11-04T01:23:01.297Z,1020.2
2022-11-04T01:24:01.038Z,1020.2
2022-11-04T01:25:00.946Z,1020.2
2022-11-04T01:26:03.755Z,1020.3
2022-11-04T01:27:00.969Z,1020.3
2022-11-04T01:28:00.961Z,1020.3
2022-11-04T01:29:01.115Z,1020.3
2022-11-04T01:30:01.234Z,1020.4
2022-11-04T01:31:04.715Z,1020.4
2022-11-04T01:32:01.276Z,1020.4
2022-11-04T01:33:00.932Z,1020.4
2022-11-04T01:34:01.246Z,1020.4
2022-11-04T01:35:01.236Z,1020.4
2022-11-04T01:36:01.696Z,1020.4
2022-11-04T01:37:00.957Z,1020.4
2022-11-04T01:38:00.966Z,1020.4
2022-11-04T01:39:01.333Z,1020.4
2022-11-04T01:40:01.283Z,1020.4
2022-11-04T01:41:01.872Z,1020.4
2022-11-04T01:42:01.353Z,1020.4
2022-11-04T01:43:01.227Z,1020.5
2022-11-04T01:44:03.228Z,1020.4
2022-11-04T01:45:01.061Z,1020.4
2022-11-04T01:46:02.021Z,1020.5
2022-11-04T01:47:01.283Z,1020.5
2022-11-04T01:48:04.937Z,1020.5
2022-11-04T01:49:06.522Z,1020.5
2022-11-04T01:50:06.183Z,1020.5
2022-11-04T01:51:01.388Z,1020.5
2022-11-04T01:52:05.888Z,1020.5
2022-11-04T01:53:06.416Z,1020.5
2022-11-04T01:54:02.416Z,1020.5
2022-11-04T01:55:05.934Z,1020.5
2022-11-04T01:56:06.132Z,1020.5
2022-11-04T01:57:04.943Z,1020.5
2022-11-04T01:58:07.293Z,1020.4
2022-11-04T01:59:07.851Z,1020.4
2022-11-04T02:00:04.926Z,1020.4
2022-11-04T02:01:01.817Z,1020.4
2022-11-04T02:02:01.566Z,1020.4
2022-11-04T02:03:08.046Z,1020.4
2022-11-04T02:04:01.479Z,1020.4
2022-11-04T02:05:00.930Z,1020.4
2022-11-04T02:06:02.458Z,1020.4
2022-11-04T02:07:04.732Z,1020.4
2022-11-04T02:08:03.338Z,1020.4
2022-11-04T02:09:01.285Z,1020.4
2022-11-04T02:10:02.024Z,1020.4
2022-11-04T02:11:03.002Z,1020.4
2022-11-04T02:12:01.263Z,1020.4
2022-11-04T02:13:04.382Z,1020.4
2022-11-04T02:14:01.948Z,1020.3
2022-11-04T02:15:02.415Z,1020.4
2022-11-04T02:16:12.235Z,1020.4
2022-11-04T02:17:08.847Z,1020.4
2022-11-04T02:18:17.102Z,1020.4
2022-11-04T02:19:14.019Z,1020.5
2022-11-04T02:20:20.407Z,1020.4
2022-11-04T02:21:20.400Z,1020.4
2022-11-04T02:22:20.404Z,1020.5
2022-11-04T02:23:20.400Z,1020.5
2022-11-04T02:24:20.403Z,1020.5
2022-11-04T02:25:20.409Z,1020.5
2022-11-04T02:26:20.411Z,1020.5
2022-11-04T02:27:20.414Z,1020.5
2022-11-04T02:28:20.403Z,1020.5
2022-11-04T02:29:16.761Z,1020.5
2022-11-04T02:30:06.638Z,1020.5
2022-11-04T02:31:08.742Z,1020.5
2022-11-04T02:32:09.768Z,1020.5
2022-11-04T02:33:16.750Z,1020.5
2022-11-04T02:34:11.313Z,1020.5
2022-11-04T02:35:07.390Z,1020.5
2022-11-04T02:36:04.961Z,1020.5
2022-11-04T02:37:14.735Z,1020.5
2022-11-04T02:38:11.548Z,1020.5
2022-11-04T02:39:07.697Z,1020.5
2022-11-04T02:40:10.985Z,1020.5
2022-11-04T02:41:11.263Z,1020.5
2022-11-04T02:42:10.755Z,1020.5
2022-11-04T02:43:11.765Z,1020.5
2022-11-04T02:44:12.554Z,1020.5
2022-11-04T02:45:11.737Z,1020.5
2022-11-04T02:46:08.449Z,1020.4
2022-11-04T02:47:05.791Z,1020.5
2022-11-04T02:48:04.753Z,1020.5
2022-11-04T02:49:08.128Z,1020.5
2022-11-04T02:50:10.000Z,1020.5
2022-11-04T02:51:06.979Z,1020.5
2022-11-04T02:52:06.020Z,1020.5
2022-11-04T02:53:08.031Z,1020.5
2022-11-04T02:54:07.063Z,1020.5
2022-11-04T02:55:06.459Z,1020.5
2022-11-04T02:56:03.347Z,1020.5
2022-11-04T02:57:06.402Z,1020.5
2022-11-04T02:58:06.134Z,1020.6
2022-11-04T02:59:05.738Z,1020.5
2022-11-04T03:00:03.986Z,1020.5
2022-11-04T03:01:03.309Z,1020.6
2022-11-04T03:02:04.777Z,1020.5
2022-11-04T03:03:06.733Z,1020.6
2022-11-04T03:04:08.377Z,1020.5
2022-11-04T03:05:05.003Z,1020.5
2022-11-04T03:06:04.044Z,1020.5
2022-11-04T03:07:02.977Z,1020.5
2022-11-04T03:08:07.000Z,1020.5
2022-11-04T03:09:03.144Z,1020.5
2022-11-04T03:10:06.231Z,1020.5
2022-11-04T03:11:05.696Z,1020.5
2022-11-04T03:12:07.745Z,1020.5
2022-11-04T03:13:08.337Z,1020.5
2022-11-04T03:14:05.724Z,1020.5
2022-11-04T03:15:04.027Z,1020.6
2022-11-04T03:16:05.241Z,1020.5
2022-11-04T03:17:07.160Z,1020.5
2022-11-04T03:18:14.743Z,1020.5
2022-11-04T03:19:09.207Z,1020.5
2022-11-04T03:20:06.459Z,1020.5
2022-11-04T03:21:05.974Z,1020.5
2022-11-04T03:22:08.305Z,1020.5
2022-11-04T03:23:01.263Z,1020.5
2022-11-04T03:24:03.029Z,1020.6
2022-11-04T03:25:02.249Z,1020.6
2022-11-04T03:26:10.200Z,1020.6
2022-11-04T03:27:08.695Z,1020.6
2022-11-04T03:28:11.784Z,1020.6
2022-11-04T03:29:15.232Z,1020.6
2022-11-04T03:30:06.047Z,1020.7
2022-11-04T03:31:04.115Z,1020.7
2022-11-04T03:32:07.474Z,1020.7
2022-11-04T03:33:07.229Z,1020.7
2022-11-04T03:34:00.941Z,1020.7
2022-11-04T03:35:01.197Z,1020.7
2022-11-04T03:36:01.120Z,1020.7
2022-11-04T03:37:01.571Z,1020.7
2022-11-04T03:38:01.334Z,1020.7
2022-11-04T03:39:01.331Z,1020.7
2022-11-04T03:40:01.888Z,1020.7
2022-11-04T03:41:02.519Z,1020.6
2022-11-04T03:42:06.864Z,1020.7
2022-11-04T03:43:08.247Z,1020.7
2022-11-04T03:44:01.407Z,1020.7
2022-11-04T03:45:01.428Z,1020.7
2022-11-04T03:46:01.160Z,1020.6
2022-11-04T03:47:01.261Z,1020.6
2022-11-04T03:48:01.639Z,1020.7
2022-11-04T03:49:02.261Z,1020.7
2022-11-04T03:50:08.712Z,1020.7
2022-11-04T03:51:01.087Z,1020.7
2022-11-04T03:52:00.939Z,1020.7
2022-11-04T03:53:01.306Z,1020.7
2022-11-04T03:54:01.282Z,1020.7
2022-11-04T03:55:02.118Z,1020.8
2022-11-04T03:56:13.924Z,1020.8
2022-11-04T03:57:18.119Z,1020.8
2022-11-04T03:58:07.376Z,1020.7
2022-11-04T03:59:20.070Z,1020.7
2022-11-04T04:00:06.435Z,1020.7
2022-11-04T04:01:14.133Z,1020.8
2022-11-04T04:02:11.379Z,1020.8
2022-11-04T04:03:07.626Z,1020.8
2022-11-04T04:04:11.614Z,1020.9
2022-11-04T04:05:06.048Z,1020.9
2022-11-04T04:06:10.268Z,1020.9
2022-11-04T04:07:06.002Z,1020.9
2022-11-04T04:08:14.372Z,1020.9
2022-11-04T04:09:08.621Z,1020.9
2022-11-04T04:10:07.373Z,1020.9
2022-11-04T04:11:08.311Z,1020.9
2022-11-04T04:12:09.994Z,1020.9
2022-11-04T04:13:08.937Z,1020.9
2022-11-04T04:14:06.204Z,1020.9
2022-11-04T04:15:06.748Z,1020.9
2022-11-04T04:16:07.127Z,1021.0
2022-11-04T04:17:06.161Z,1020.9
2022-11-04T04:18:04.525Z,1020.9
2022-11-04T04:19:07.854Z,1020.9
2022-11-04T04:20:04.732Z,1020.9
2022-11-04T04:21:06.022Z,1020.9
2022-11-04T04:22:06.496Z,1021.0
2022-11-04T04:23:04.899Z,1021.0
2022-11-04T04:24:06.104Z,1021.0
2022-11-04T04:25:05.864Z,1021.0
2022-11-04T04:26:05.966Z,1021.0
2022-11-04T04:27:02.178Z,1021.0
2022-11-04T04:28:02.887Z,1021.1
2022-11-04T04:29:04.551Z,1021.0
2022-11-04T04:30:04.458Z,1021.1
2022-11-04T04:31:01.948Z,1021.1
2022-11-04T04:32:04.433Z,1021.0
2022-11-04T04:33:07.429Z,1021.0
2022-11-04T04:34:01.330Z,1021.0
2022-11-04T04:35:01.355Z,1021.0
2022-11-04T04:36:01.427Z,1021.0
2022-11-04T04:37:04.056Z,1021.0
2022-11-04T04:38:04.542Z,1021.0
2022-11-04T04:39:04.694Z,1021.0
2022-11-04T04:40:01.030Z,1021.0
2022-11-04T04:41:09.271Z,1021.0
2022-11-04T04:42:01.493Z,1021.0
2022-11-04T04:43:01.152Z,1021.0
2022-11-04T04:44:01.301Z,1021.0
2022-11-04T04:45:02.935Z,1021.0
2022-11-04T04:46:01.973Z,1021.0
2022-11-04T04:47:03.182Z,1021.0
2022-11-04T04:48:01.439Z,1021.0
2022-11-04T04:49:04.825Z,1021.0
2022-11-04T04:50:01.710Z,1021.0
2022-11-04T04:51:01.020Z,1021.0
2022-11-04T04:52:03.654Z,1021.0
2022-11-04T04:53:01.352Z,1021.0
2022-11-04T04:54:00.968Z,1021.0
2022-11-04T04:55:00.953Z,1021.0
2022-11-04T04:56:01.226Z,1021.0
2022-11-04T04:57:00.926Z,1021.0
2022-11-04T04:58:01.076Z,1021.0
2022-11-04T04:59:01.284Z,1021.0
2022-11-04T05:00:01.108Z,1021.0
2022-11-04T05:01:00.945Z,1021.0
2022-11-04T05:02:01.044Z,1021.0
2022-11-04T05:03:01.690Z,1020.9
2022-11-04T05:04:00.936Z,1020.9
2022-11-04T05:05:00.994Z,1020.9
2022-11-04T05:06:01.220Z,1020.9
2022-11-04T05:07:00.929Z,1020.9
2022-11-04T05:08:05.045Z,1020.9
2022-11-04T05:09:00.928Z,1020.9
2022-11-04T05:10:01.002Z,1020.9
2022-11-04T05:11:01.251Z,1020.9
2022-11-04T05:12:01.329Z,1021.0
2022-11-04T05:13:01.258Z,1021.0
2022-11-04T05:14:01.138Z,1021.0
2022-11-04T05:15:01.219Z,1021.0
2022-11-04T05:16:04.753Z,1021.0
2022-11-04T05:17:01.000Z,1021.0
2022-11-04T05:18:02.593Z,1021.0
2022-11-04T05:19:00.923Z,1020.9
2022-11-04T05:20:00.916Z,1021.0
2022-11-04T05:21:02.444Z,1020.9
2022-11-04T05:22:01.560Z,1020.9
2022-11-04T05:23:01.232Z,1020.9
2022-11-04T05:24:01.295Z,1020.8
2022-11-04T05:25:01.123Z,1020.8
2022-11-04T05:26:00.950Z,1020.7
2022-11-04T05:27:00.934Z,1020.7
2022-11-04T05:28:01.455Z,1020.7
2022-11-04T05:29:01.363Z,1020.7
2022-11-04T05:30:01.242Z,1020.7
2022-11-04T05:31:03.471Z,1020.6
2022-11-04T05:32:00.926Z,1020.6
2022-11-04T05:33:04.726Z,1020.7
2022-11-04T05:34:01.234Z,1020.6
2022-11-04T05:35:01.350Z,1020.6
2022-11-04T05:36:06.000Z,1020.6
2022-11-04T05:37:00.922Z,1020.6
2022-11-04T05:38:01.011Z,1020.5
2022-11-04T05:39:00.919Z,1020.6
2022-11-04T05:40:01.224Z,1020.6
2022-11-04T05:41:01.317Z,1020.6
2022-11-04T05:42:01.229Z,1020.6
2022-11-04T05:43:01.248Z,1020.6
2022-11-04T05:44:03.127Z,1020.6
2022-11-04T05:45:00.914Z,1020.6
2022-11-04T05:46:01.497Z,1020.6
2022-11-04T05:47:01.328Z,1020.6
2022-11-04T05:48:03.311Z,1020.6
2022-11-04T05:49:01.286Z,1020.6
2022-11-04T05:50:00.928Z,1020.6
2022-11-04T05:51:00.929Z,1020.5
2022-11-04T05:52:00.962Z,1020.5
2022-11-04T05:53:01.335Z,1020.5
2022-11-04T05:54:01.244Z,1020.5
2022-11-04T05:55:00.943Z,1020.5
2022-11-04T05:56:00.931Z,1020.6
2022-11-04T05:57:01.220Z,1020.6
2022-11-04T05:58:01.385Z,1020.6
2022-11-04T05:59:01.231Z,1020.6
2022-11-04T06:00:01.075Z,1020.6
2022-11-04T06:01:11.810Z,1020.6
2022-11-04T06:02:02.114Z,1020.6
2022-11-04T06:03:01.093Z,1020.6
2022-11-04T06:04:02.961Z,1020.5
2022-11-04T06:05:00.920Z,1020.5
2022-11-04T06:06:00.923Z,1020.5
2022-11-04T06:07:01.261Z,1020.5
2022-11-04T06:08:00.946Z,1020.6
2022-11-04T06:09:02.918Z,1020.5
2022-11-04T06:10:01.239Z,1020.5
2022-11-04T06:11:01.237Z,1020.5
2022-11-04T06:12:00.917Z,1020.4
2022-11-04T06:13:00.947Z,1020.4
2022-11-04T06:14:01.605Z,1020.4
2022-11-04T06:15:01.239Z,1020.4
2022-11-04T06:16:00.955Z,1020.4
2022-11-04T06:17:01.523Z,1020.4
2022-11-04T06:18:00.943Z,1020.4
2022-11-04T06:19:05.919Z,1020.3
2022-11-04T06:20:01.474Z,1020.4
2022-11-04T06:21:20.404Z,1020.4
2022-11-04T06:22:01.221Z,1020.4
2022-11-04T06:23:00.927Z,1020.4
2022-11-04T06:24:01.232Z,1020.4
2022-11-04T06:25:01.350Z,1020.5
2022-11-04T06:26:00.921Z,1020.5
2022-11-04T06:27:01.252Z,1020.5
2022-11-04T06:28:00.923Z,1020.5
2022-11-04T06:29:00.944Z,1020.5
2022-11-04T06:30:00.931Z,1020.5
2022-11-04T06:31:04.981Z,1020.5
2022-11-04T06:32:00.933Z,1020.5
2022-11-04T06:33:00.963Z,1020.5
2022-11-04T06:34:01.350Z,1020.6
2022-11-04T06:35:01.054Z,1020.5
2022-11-04T06:36:03.577Z,1020.5
2022-11-04T06:37:01.393Z,1020.5
2022-11-04T06:38:00.910Z,1020.5
2022-11-04T06:39:04.565Z,1020.5
2022-11-04T06:40:01.275Z,1020.5
2022-11-04T06:41:01.806Z,1020.5
2022-11-04T06:42:02.952Z,1020.5
2022-11-04T06:43:00.934Z,1020.6
2022-11-04T06:44:01.267Z,1020.5
2022-11-04T06:45:01.252Z,1020.5
2022-11-04T06:46:02.497Z,1020.5
2022-11-04T06:47:00.974Z,1020.5
2022-11-04T06:48:00.926Z,1020.5
2022-11-04T06:49:01.214Z,1020.5
2022-11-04T06:50:00.927Z,1020.5
2022-11-04T06:51:01.469Z,1020.4
2022-11-04T06:52:01.232Z,1020.5
2022-11-04T06:53:01.390Z,1020.5
2022-11-04T06:54:00.923Z,1020.4
2022-11-04T06:55:01.222Z,1020.5
2022-11-04T06:56:02.947Z,1020.4
2022-11-04T06:57:01.232Z,1020.4
2022-11-04T06:58:01.221Z,1020.5
2022-11-04T06:59:01.589Z,1020.5
2022-11-04T07:00:01.026Z,1020.5
2022-11-04T07:01:01.025Z,1020.4
2022-11-04T07:02:01.068Z,1020.5
2022-11-04T07:03:00.939Z,1020.4
2022-11-04T07:04:02.613Z,1020.4
2022-11-04T07:05:00.962Z,1020.4
2022-11-04T07:06:05.093Z,1020.4
2022-11-04T07:07:01.211Z,1020.4
2022-11-04T07:08:01.247Z,1020.3
2022-11-04T07:09:02.526Z,1020.3
2022-11-04T07:10:01.431Z,1020.4
2022-11-04T07:11:01.876Z,1020.3
2022-11-04T07:12:01.230Z,1020.4
2022-11-04T07:13:00.969Z,1020.4
2022-11-04T07:14:01.316Z,1020.3
2022-11-04T07:15:01.159Z,1020.3
2022-11-04T07:16:04.258Z,1020.3
2022-11-04T07:17:01.041Z,1020.3
2022-11-04T07:18:01.457Z,1020.3
2022-11-04T07:19:01.248Z,1020.3
2022-11-04T07:20:01.349Z,1020.3
2022-11-04T07:21:05.763Z,1020.3
2022-11-04T07:22:01.236Z,1020.3
2022-11-04T07:23:00.948Z,1020.3
2022-11-04T07:24:01.813Z,1020.3
2022-11-04T07:25:01.229Z,1020.3
2022-11-04T07:26:01.897Z,1020.3
2022-11-04T07:28:02.481Z,1020.4
2022-11-04T07:29:01.282Z,1020.3
2022-11-04T07:30:00.929Z,1020.3
2022-11-04T07:31:03.320Z,1020.3
2022-11-04T07:32:00.912Z,1020.3
2022-11-04T07:33:01.222Z,1020.3
2022-11-04T07:34:00.962Z,1020.3
2022-11-04T07:35:00.944Z,1020.3
2022-11-04T07:36:04.060Z,1020.3
2022-11-04T07:37:01.442Z,1020.3
2022-11-04T07:38:00.934Z,1020.2
2022-11-04T07:39:00.929Z,1020.2
2022-11-04T07:40:00.949Z,1020.2
2022-11-04T07:41:01.853Z,1020.2
2022-11-04T07:42:00.916Z,1020.2
2022-11-04T07:43:00.981Z,1020.3
2022-11-04T07:44:01.266Z,1020.3
2022-11-04T07:45:01.255Z,1020.3
2022-11-04T07:46:03.082Z,1020.3
2022-11-04T07:47:01.239Z,1020.3
2022-11-04T07:48:01.593Z,1020.3
2022-11-04T07:49:00.945Z,1020.3
2022-11-04T07:50:03.971Z,1020.3
2022-11-04T07:51:02.280Z,1020.3
2022-11-04T07:52:00.934Z,1020.3
2022-11-04T07:53:00.928Z,1020.3
2022-11-04T07:54:01.317Z,1020.3
2022-11-04T07:55:00.924Z,1020.4
2022-11-04T07:56:03.767Z,1020.4
2022-11-04T07:57:00.937Z,1020.4
2022-11-04T07:58:00.950Z,1020.4
2022-11-04T07:59:01.292Z,1020.5
2022-11-04T08:00:01.561Z,1020.5
2022-11-04T08:01:03.586Z,1020.4
2022-11-04T08:02:01.078Z,1020.4
2022-11-04T08:03:01.250Z,1020.5
2022-11-04T08:04:01.067Z,1020.5
2022-11-04T08:05:01.270Z,1020.4
2022-11-04T08:06:03.220Z,1020.4
2022-11-04T08:07:01.246Z,1020.5
2022-11-04T08:08:00.961Z,1020.4
2022-11-04T08:09:01.023Z,1020.4
2022-11-04T08:10:01.761Z,1020.4
2022-11-04T08:11:04.207Z,1020.3
2022-11-04T08:12:01.208Z,1020.4
2022-11-04T08:13:01.239Z,1020.4
2022-11-04T08:14:03.572Z,1020.3
2022-11-04T08:15:01.230Z,1020.3
2022-11-04T08:16:03.421Z,1020.3
2022-11-04T08:17:01.229Z,1020.3
2022-11-04T08:18:00.914Z,1020.3
2022-11-04T08:19:01.573Z,1020.4
2022-11-04T08:20:00.943Z,1020.3
2022-11-04T08:21:02.375Z,1020.3
2022-11-04T08:22:01.257Z,1020.3
2022-11-04T08:23:00.922Z,1020.3
2022-11-04T08:24:01.248Z,1020.3
2022-11-04T08:25:01.231Z,1020.3
2022-11-04T08:26:01.619Z,1020.3
2022-11-04T08:27:01.381Z,1020.4
2022-11-04T08:28:01.364Z,1020.4
2022-11-04T08:29:00.981Z,1020.4
2022-11-04T08:30:00.950Z,1020.4
2022-11-04T08:31:04.826Z,1020.4
2022-11-04T08:32:01.549Z,1020.4
2022-11-04T08:33:00.922Z,1020.4
2022-11-04T08:34:01.272Z,1020.4
2022-11-04T08:35:00.924Z,1020.5
2022-11-04T08:36:05.852Z,1020.5
2022-11-04T08:37:00.943Z,1020.4
2022-11-04T08:38:01.271Z,1020.4
2022-11-04T08:39:05.853Z,1020.4
2022-11-04T08:40:01.022Z,1020.4
2022-11-04T08:41:02.810Z,1020.4
2022-11-04T08:42:01.243Z,1020.4
2022-11-04T08:43:01.808Z,1020.4
2022-11-04T08:44:01.346Z,1020.4
2022-11-04T08:45:01.241Z,1020.4
2022-11-04T08:46:01.845Z,1020.4
2022-11-04T08:47:02.262Z,1020.4
2022-11-04T08:48:05.359Z,1020.4
2022-11-04T08:49:01.796Z,1020.4
2022-11-04T08:50:01.240Z,1020.3
2022-11-04T08:51:01.867Z,1020.4
2022-11-04T08:52:00.930Z,1020.4
2022-11-04T08:53:02.232Z,1020.5
2022-11-04T08:54:01.505Z,1020.5
2022-11-04T08:55:00.938Z,1020.5
2022-11-04T08:56:08.213Z,1020.5
2022-11-04T08:57:01.295Z,1020.5
2022-11-04T08:58:01.507Z,1020.5
2022-11-04T08:59:03.249Z,1020.5
2022-11-04T09:00:01.112Z,1020.5
2022-11-04T09:01:03.172Z,1020.5
2022-11-04T09:02:01.005Z,1020.5
2022-11-04T09:03:01.422Z,1020.5
2022-11-04T09:04:01.357Z,1020.4
2022-11-04T09:05:01.242Z,1020.4
2022-11-04T09:06:01.250Z,1020.4
2022-11-04T09:07:07.929Z,1020.4
2022-11-04T09:08:00.943Z,1020.4
2022-11-04T09:09:01.403Z,1020.3
2022-11-04T09:10:01.227Z,1020.4
2022-11-04T09:11:00.959Z,1020.4
2022-11-04T09:12:00.920Z,1020.3
2022-11-04T09:13:01.216Z,1020.4
2022-11-04T09:14:01.578Z,1020.4
2022-11-04T09:15:01.313Z,1020.3
2022-11-04T09:16:01.739Z,1020.3
2022-11-04T09:17:01.299Z,1020.3
2022-11-04T09:18:00.938Z,1020.4
2022-11-04T09:19:01.720Z,1020.4
2022-11-04T09:20:01.298Z,1020.4
2022-11-04T09:21:02.760Z,1020.4
2022-11-04T09:22:00.936Z,1020.4
2022-11-04T09:23:00.942Z,1020.4
2022-11-04T09:24:00.942Z,1020.4
2022-11-04T09:25:01.293Z,1020.4
2022-11-04T09:26:04.432Z,1020.4
2022-11-04T09:27:01.474Z,1020.4
2022-11-04T09:28:01.863Z,1020.4
2022-11-04T09:29:00.933Z,1020.4
2022-11-04T09:30:00.956Z,1020.4
2022-11-04T09:31:05.847Z,1020.3
2022-11-04T09:32:01.290Z,1020.3
2022-11-04T09:33:01.291Z,1020.3
2022-11-04T09:34:01.421Z,1020.3
2022-11-04T09:35:00.933Z,1020.3
2022-11-04T09:36:01.243Z,1020.3
2022-11-04T09:37:00.991Z,1020.3
2022-11-04T09:38:01.385Z,1020.3
2022-11-04T09:39:01.237Z,1020.3
2022-11-04T09:40:00.931Z,1020.3
2022-11-04T09:41:01.124Z,1020.3
2022-11-04T09:42:14.560Z,1020.3
2022-11-04T09:43:13.516Z,1020.3
2022-11-04T09:44:09.680Z,1020.3
2022-11-04T09:45:21.283Z,1020.3
2022-11-04T09:46:02.162Z,1020.3
2022-11-04T09:47:02.332Z,1020.3
2022-11-04T09:48:06.751Z,1020.2
2022-11-04T09:49:04.143Z,1020.2
2022-11-04T09:50:02.814Z,1020.2
2022-11-04T09:51:04.609Z,1020.3
2022-11-04T09:52:03.944Z,1020.2
2022-11-04T09:53:07.559Z,1020.3
2022-11-04T09:54:10.015Z,1020.2
2022-11-04T09:55:10.660Z,1020.2
2022-11-04T09:56:06.254Z,1020.3
2022-11-04T09:57:02.647Z,1020.3
2022-11-04T09:58:01.010Z,1020.2
2022-11-04T09:59:02.982Z,1020.3
2022-11-04T10:00:01.349Z,1020.3
2022-11-04T10:01:08.219Z,1020.3
2022-11-04T10:02:22.309Z,1020.3
2022-11-04T10:03:17.847Z,1020.4
2022-11-04T10:04:14.632Z,1020.4
2022-11-04T10:05:11.302Z,1020.4
2022-11-04T10:06:14.676Z,1020.3
2022-11-04T10:07:12.024Z,1020.4
2022-11-04T10:08:18.822Z,1020.4
2022-11-04T10:09:10.443Z,1020.3
2022-11-04T10:10:10.848Z,1020.3
2022-11-04T10:11:09.865Z,1020.4
2022-11-04T10:12:17.830Z,1020.3
2022-11-04T10:13:16.964Z,1020.3
2022-11-04T10:14:18.025Z,1020.3
2022-11-04T10:15:16.551Z,1020.3
2022-11-04T10:16:18.251Z,1020.3
2022-11-04T10:17:12.909Z,1020.3
2022-11-04T10:18:13.643Z,1020.3
2022-11-04T10:19:10.911Z,1020.3
2022-11-04T10:20:18.521Z,1020.3
2022-11-04T10:21:10.492Z,1020.3
2022-11-04T10:22:07.439Z,1020.4
2022-11-04T10:23:12.956Z,1020.4
2022-11-04T10:24:11.246Z,1020.4
2022-11-04T10:25:10.083Z,1020.4
2022-11-04T10:26:09.989Z,1020.4
2022-11-04T10:27:04.765Z,1020.4
2022-11-04T10:28:02.422Z,1020.4
2022-11-04T10:29:06.109Z,1020.5
2022-11-04T10:30:05.810Z,1020.5
2022-11-04T10:31:02.751Z,1020.6
2022-11-04T10:32:15.998Z,1020.6
2022-11-04T10:33:08.182Z,1020.6
2022-11-04T10:34:05.777Z,1020.7
2022-11-04T10:35:09.976Z,1020.7
2022-11-04T10:36:04.927Z,1020.7
2022-11-04T10:37:02.504Z,1020.7
2022-11-04T10:38:15.729Z,1020.7
2022-11-04T10:39:06.617Z,1020.6
2022-11-04T10:40:15.774Z,1020.7
2022-11-04T10:41:04.483Z,1020.6
2022-11-04T10:42:01.453Z,1020.6
2022-11-04T10:43:07.250Z,1020.6
2022-11-04T10:44:05.573Z,1020.6
2022-11-04T10:45:01.496Z,1020.6
2022-11-04T10:46:13.362Z,1020.6
2022-11-04T10:47:08.567Z,1020.6
2022-11-04T10:48:08.796Z,1020.5
2022-11-04T10:49:14.549Z,1020.5
2022-11-04T10:50:30.363Z,1020.5
2022-11-04T10:51:00.973Z,1020.5
2022-11-04T10:52:01.496Z,1020.5
2022-11-04T10:53:11.053Z,1020.5
2022-11-04T10:54:01.301Z,1020.4
2022-11-04T10:55:01.264Z,1020.3
2022-11-04T10:56:05.667Z,1020.4
2022-11-04T10:57:01.025Z,1020.4
2022-11-04T10:58:01.723Z,1020.4
2022-11-04T10:59:20.838Z,1020.4
2022-11-04T11:00:04.983Z,1020.4
2022-11-04T11:01:20.473Z,1020.4
2022-11-04T11:02:02.856Z,1020.5
2022-11-04T11:03:01.367Z,1020.4
2022-11-04T11:04:06.429Z,1020.4
2022-11-04T11:05:13.247Z,1020.4
2022-11-04T11:06:13.779Z,1020.4
2022-11-04T11:07:03.442Z,1020.4
2022-11-04T11:08:01.277Z,1020.4
2022-11-04T11:09:13.313Z,1020.3
2022-11-04T11:10:00.981Z,1020.3
2022-11-04T11:11:06.734Z,1020.3
2022-11-04T11:12:09.872Z,1020.3
2022-11-04T11:13:02.941Z,1020.3
2022-11-04T11:14:01.250Z,1020.4
2022-11-04T11:15:20.406Z,1020.4
2022-11-04T11:16:08.052Z,1020.4
2022-11-04T11:17:19.813Z,1020.4
2022-11-04T11:18:13.946Z,1020.4
2022-11-04T11:19:13.959Z,1020.4
2022-11-04T11:20:12.253Z,1020.4
2022-11-04T11:21:07.374Z,1020.4
2022-11-04T11:22:00.977Z,1020.4
2022-11-04T11:23:04.877Z,1020.4
2022-11-04T11:24:13.574Z,1020.4
2022-11-04T11:25:19.655Z,1020.5
2022-11-04T11:26:03.186Z,1020.5
2022-11-04T11:27:10.244Z,1020.4
2022-11-04T11:28:04.073Z,1020.4
2022-11-04T11:29:01.071Z,1020.5
2022-11-04T11:30:01.029Z,1020.5
2022-11-04T11:31:02.815Z,1020.5
2022-11-04T11:32:01.029Z,1020.5
2022-11-04T11:33:04.305Z,1020.6
2022-11-04T11:34:05.757Z,1020.6
2022-11-04T11:35:02.771Z,1020.6
2022-11-04T11:36:05.997Z,1020.6
2022-11-04T11:37:01.636Z,1020.6
2022-11-04T11:38:01.848Z,1020.6
2022-11-04T11:39:05.161Z,1020.6
2022-11-04T11:40:01.342Z,1020.6
2022-11-04T11:41:24.261Z,1020.7
2022-11-04T11:42:05.118Z,1020.7
2022-11-04T11:43:02.904Z,1020.7
2022-11-04T11:44:05.540Z,1020.7
2022-11-04T11:45:01.363Z,1020.7
2022-11-04T11:46:02.387Z,1020.7
2022-11-04T11:47:03.900Z,1020.8
2022-11-04T11:48:00.938Z,1020.8
2022-11-04T11:49:03.549Z,1020.8
2022-11-04T11:50:06.354Z,1020.8
2022-11-04T11:51:00.943Z,1020.8
2022-11-04T11:52:20.404Z,1020.8
2022-11-04T11:53:14.632Z,1020.7
2022-11-04T11:54:15.578Z,1020.7
2022-11-04T11:55:06.689Z,1020.8
2022-11-04T11:56:14.112Z,1020.8
2022-11-04T11:57:15.344Z,1020.9
2022-11-04T12:01:14.038Z,1020.9
2022-11-04T12:02:19.787Z,1021.0
2022-11-04T12:03:10.947Z,1021.0
2022-11-04T12:06:16.807Z,1021.0
2022-11-04T12:09:17.451Z,1021.1
2022-11-04T12:10:18.445Z,1021.1
2022-11-04T12:11:09.893Z,1021.1
2022-11-04T12:12:09.430Z,1021.1
2022-11-04T12:13:18.435Z,1021.2
2022-11-04T12:14:05.362Z,1021.2
2022-11-04T12:15:14.845Z,1021.2
2022-11-04T12:16:17.383Z,1021.2
2022-11-04T12:17:14.011Z,1021.2
2022-11-04T12:18:16.381Z,1021.2
2022-11-04T12:19:17.784Z,1021.2
2022-11-04T12:20:15.342Z,1021.2
2022-11-04T12:21:10.206Z,1021.2
2022-11-04T12:22:09.196Z,1021.3
2022-11-04T12:23:12.680Z,1021.3
2022-11-04T12:24:16.233Z,1021.4
2022-11-04T12:25:10.800Z,1021.4
2022-11-04T12:26:12.420Z,1021.4
2022-11-04T12:27:08.115Z,1021.4
2022-11-04T12:28:09.102Z,1021.4
2022-11-04T12:29:17.381Z,1021.4
2022-11-04T12:30:07.431Z,1021.5
2022-11-04T12:31:13.354Z,1021.5
2022-11-04T12:32:11.586Z,1021.4
2022-11-04T12:33:12.938Z,1021.4
2022-11-04T12:34:10.731Z,1021.5
2022-11-04T12:35:17.913Z,1021.4
2022-11-04T12:36:16.495Z,1021.4